Time;durP1;ratioP1;P1;durP2;ratioP2;P2;SDS_P1;SDS_P2;PMS_P1;PMS_P2;Temp;Humidity;BMP_temperature;BMP_pressure;BME280_temperature;BME280_humidity;BME280_pressure;Samples;Min_cycle;Max_cycle;Signal;HPM_P1;HPM_P2
2022/03/31 00:00:49;;;;;;;8.52;4.93;;;;;;;5.09;66.87;100064.53;5034557;28;20087;-81
2022/03/31 00:03:19;;;;;;;8.57;4.90;;;;;;;5.08;66.80;100063.66;5035261;28;20021;-82
2022/03/31 00:05:45;;;;;;;8.73;4.97;;;;;;;5.12;66.97;100068.78;5035595;28;20052;-82
2022/03/31 00:08:15;;;;;;;9.52;5.32;;;;;;;5.09;67.24;100067.94;5034625;28;20025;-82
2022/03/31 00:10:41;;;;;;;10.48;5.40;;;;;;;5.08;66.82;100066.22;5034567;28;20038;-82
2022/03/31 00:13:09;;;;;;;11.80;5.85;;;;;;;5.02;67.07;100070.53;5035046;28;20048;-81
2022/03/31 00:15:34;;;;;;;12.63;6.25;;;;;;;4.95;67.47;100072.31;5034398;28;20431;-82
2022/03/31 00:18:02;;;;;;;12.52;6.00;;;;;;;4.97;67.67;100069.72;5035161;28;20056;-82
2022/03/31 00:23:50;;;;;;;12.57;6.15;;;;;;;4.91;68.26;100063.72;5037697;28;20107;-82
2022/03/31 00:26:16;;;;;;;10.02;5.45;;;;;;;4.97;67.40;100056.88;5043121;28;20424;-82
2022/03/31 00:28:42;;;;;;;9.98;5.30;;;;;;;5.01;67.39;100059.41;5034267;28;20469;-82
2022/03/31 00:31:07;;;;;;;12.30;5.97;;;;;;;4.95;68.70;100065.44;5035255;28;20037;-82
2022/03/31 00:33:33;;;;;;;12.40;6.30;;;;;;;4.91;67.98;100053.44;5034647;28;20049;-82
2022/03/31 00:35:58;;;;;;;11.98;5.70;;;;;;;4.94;68.05;100063.72;5034257;28;20032;-81
2022/03/31 00:38:23;;;;;;;13.00;5.78;;;;;;;4.95;67.25;100070.59;5034032;28;20022;-81
2022/03/31 00:40:52;;;;;;;12.48;5.82;;;;;;;5.01;67.61;100069.69;5034934;28;20535;-82
2022/03/31 00:43:17;;;;;;;10.88;5.60;;;;;;;5.05;67.71;100063.69;5033345;28;20527;-82
2022/03/31 00:45:50;;;;;;;10.75;5.22;;;;;;;5.09;67.25;100057.66;5034863;28;20117;-82
2022/03/31 00:48:19;;;;;;;11.27;5.50;;;;;;;5.12;68.27;100055.94;5034191;28;20041;-82
2022/03/31 00:50:45;;;;;;;11.63;5.75;;;;;;;5.14;67.46;100054.22;5033831;28;20030;-82
2022/03/31 00:53:11;;;;;;;11.85;5.85;;;;;;;5.10;68.35;100048.22;5034417;28;20040;-82
2022/03/31 00:55:39;;;;;;;13.60;6.75;;;;;;;5.09;67.83;100060.22;5034361;28;20428;-82
2022/03/31 00:58:05;;;;;;;14.23;6.28;;;;;;;5.09;67.74;100061.94;5033482;28;20030;-82
2022/03/31 01:00:31;;;;;;;13.30;6.45;;;;;;;5.10;68.33;100059.34;5034241;28;20209;-82
2022/03/31 01:02:56;;;;;;;12.60;6.17;;;;;;;5.12;68.02;100061.06;5034341;28;20088;-82
2022/03/31 01:05:22;;;;;;;11.30;5.90;;;;;;;5.12;68.58;100061.06;5033077;28;20283;-82
2022/03/31 01:07:48;;;;;;;12.40;6.53;;;;;;;5.08;68.71;100055.94;5033912;28;20036;-82
2022/03/31 01:10:14;;;;;;;14.77;7.05;;;;;;;5.06;68.11;100057.69;5034117;28;20347;-82
2022/03/31 01:12:40;;;;;;;14.52;6.68;;;;;;;5.02;68.58;100055.97;5032990;28;20030;-82
2022/03/31 01:15:07;;;;;;;12.57;6.35;;;;;;;5.03;68.37;100057.69;5034028;28;20114;-82
2022/03/31 01:17:46;;;;;;;12.32;6.07;;;;;;;5.04;68.15;100055.97;5033033;28;20034;-82
2022/03/31 01:20:20;;;;;;;12.93;6.45;;;;;;;4.99;68.42;100050.84;5033926;28;20017;-82
2022/03/31 01:22:46;;;;;;;12.90;6.40;;;;;;;4.98;68.23;100038.84;5034153;28;20030;-82
2022/03/31 01:25:11;;;;;;;12.02;6.00;;;;;;;5.01;68.77;100043.97;5033067;28;20036;-82
2022/03/31 01:27:40;;;;;;;12.13;6.25;;;;;;;4.97;68.36;100037.13;5033675;28;20117;-82
2022/03/31 01:30:08;;;;;;;13.25;6.50;;;;;;;4.96;68.83;100035.44;5033948;28;20092;-82
2022/03/31 01:32:33;;;;;;;13.55;6.57;;;;;;;4.91;69.21;100035.44;5032368;28;20446;-82
2022/03/31 01:34:58;;;;;;;13.88;6.97;;;;;;;4.89;69.54;100042.34;5033673;28;20104;-82
2022/03/31 01:37:24;;;;;;;15.25;6.65;;;;;;;4.85;69.82;100040.63;5033383;28;20033;-82
2022/03/31 01:39:49;;;;;;;14.40;6.70;;;;;;;4.81;70.20;100035.53;5033160;28;20060;-82
2022/03/31 01:42:15;;;;;;;15.60;7.35;;;;;;;4.73;71.12;100033.81;5033546;28;20084;-82
2022/03/31 01:44:40;;;;;;;15.02;6.53;;;;;;;4.72;70.19;100026.13;5033313;28;20029;-82
2022/03/31 01:47:07;;;;;;;16.40;7.57;;;;;;;4.67;71.90;100030.44;5032481;28;20049;-82
2022/03/31 01:49:35;;;;;;;17.45;8.30;;;;;;;4.69;70.64;100031.28;5033114;28;20025;-82
2022/03/31 01:52:00;;;;;;;17.88;7.93;;;;;;;4.63;71.85;100037.28;5033669;28;20528;-81
2022/03/31 01:54:26;;;;;;;17.70;8.48;;;;;;;4.59;71.88;100033.03;5032213;28;20041;-82
2022/03/31 01:56:51;;;;;;;17.65;8.25;;;;;;;4.58;72.03;100028.75;5033478;28;20394;-82
2022/03/31 01:59:16;;;;;;;17.25;8.20;;;;;;;4.51;72.70;100016.78;5032945;28;20029;-82
2022/03/31 02:01:42;;;;;;;19.15;9.32;;;;;;;4.52;72.36;100021.94;5032331;28;20014;-82
2022/03/31 02:04:07;;;;;;;18.67;8.73;;;;;;;4.50;73.48;100027.94;5032960;28;20025;-82
2022/03/31 02:06:32;;;;;;;16.55;7.68;;;;;;;4.48;73.79;100015.94;5033079;28;20179;-82
2022/03/31 02:08:58;;;;;;;18.80;8.50;;;;;;;4.53;72.80;100017.63;5032295;28;20021;-82
2022/03/31 02:11:24;;;;;;;18.10;8.65;;;;;;;4.48;72.72;100015.94;5033011;28;20022;-82
2022/03/31 02:13:49;;;;;;;18.25;8.63;;;;;;;4.44;73.67;100014.25;5032150;28;20469;-81
2022/03/31 02:16:15;;;;;;;16.63;8.00;;;;;;;4.46;73.48;100011.66;5032787;28;20113;-82
2022/03/31 02:18:40;;;;;;;16.50;7.20;;;;;;;4.47;73.83;100010.78;5032978;28;20105;-82
2022/03/31 02:21:06;;;;;;;16.55;7.35;;;;;;;4.46;74.07;99998.81;5032594;28;20188;-82
2022/03/31 02:23:32;;;;;;;18.38;7.82;;;;;;;4.41;75.17;100006.53;5032753;28;20483;-82
2022/03/31 02:25:58;;;;;;;16.40;7.40;;;;;;;4.41;75.78;100003.13;5033123;28;20116;-82
2022/03/31 02:28:24;;;;;;;15.52;7.45;;;;;;;4.39;73.23;99997.13;5031733;28;20040;-82
2022/03/31 02:30:49;;;;;;;17.65;7.70;;;;;;;4.36;76.06;100003.13;5032848;28;20380;-82
2022/03/31 02:33:14;;;;;;;18.65;8.82;;;;;;;4.21;77.02;99993.78;5032345;28;20034;-83
2022/03/31 02:35:40;;;;;;;17.58;8.38;;;;;;;4.24;74.70;100003.19;5031753;28;20023;-82
2022/03/31 02:38:05;;;;;;;15.32;7.30;;;;;;;4.24;76.53;100001.44;5032992;28;20436;-82
2022/03/31 02:40:31;;;;;;;15.50;7.50;;;;;;;4.25;76.63;99995.44;5032634;28;20112;-82
2022/03/31 02:42:56;;;;;;;16.00;7.05;;;;;;;4.24;76.58;99992.91;5032146;28;20025;-82
2022/03/31 02:45:21;;;;;;;18.10;8.45;;;;;;;4.16;77.04;99982.66;5034406;28;20033;-82
2022/03/31 02:47:47;;;;;;;16.00;7.28;;;;;;;4.14;77.99;99989.50;5036699;28;20198;-82
2022/03/31 02:50:14;;;;;;;16.67;8.20;;;;;;;4.03;79.00;99984.41;5036212;28;20047;-82
2022/03/31 02:55:28;;;;;;;15.90;7.72;;;;;;;3.91;79.34;99987.81;5036588;28;20075;-83
2022/03/31 02:57:54;;;;;;;17.80;8.85;;;;;;;3.79;79.89;99977.56;5035460;28;20036;-83
2022/03/31 03:00:20;;;;;;;17.50;8.63;;;;;;;3.69;79.30;99976.75;5036279;28;20093;-82
2022/03/31 03:02:46;;;;;;;17.63;8.63;;;;;;;3.51;80.97;99964.78;5036379;28;20033;-83
2022/03/31 03:05:11;;;;;;;15.48;7.75;;;;;;;3.57;81.14;99977.59;5036056;28;20030;-81
2022/03/31 03:07:36;;;;;;;16.83;8.40;;;;;;;3.59;80.69;99972.50;5036360;28;20030;-82
2022/03/31 03:10:02;;;;;;;15.52;7.70;;;;;;;3.62;79.74;99967.31;5035716;28;20029;-82
2022/03/31 03:12:27;;;;;;;15.13;7.60;;;;;;;3.49;81.36;99959.63;5036083;28;20025;-83
2022/03/31 03:14:53;;;;;;;14.50;7.05;;;;;;;3.42;81.42;99960.50;5036287;28;20029;-83
2022/03/31 03:17:18;;;;;;;11.38;5.70;;;;;;;3.44;81.54;99961.38;5035518;28;20025;-82
2022/03/31 03:19:43;;;;;;;10.23;5.47;;;;;;;3.45;80.40;99962.22;5036474;28;20021;-82
2022/03/31 03:22:08;;;;;;;12.05;6.65;;;;;;;3.29;82.74;99959.66;5035777;28;20037;-83
2022/03/31 03:24:34;;;;;;;12.45;5.90;;;;;;;3.32;80.85;99956.22;5035171;28;20029;-82
2022/03/31 03:26:59;;;;;;;8.70;5.07;;;;;;;3.30;80.67;99963.06;5035967;28;20163;-82
2022/03/31 03:29:24;;;;;;;8.85;5.03;;;;;;;3.29;79.90;99969.91;5035568;28;20390;-82
2022/03/31 03:31:52;;;;;;;9.13;4.95;;;;;;;3.26;81.63;99959.66;5035080;28;20028;-83
2022/03/31 03:34:17;;;;;;;8.88;4.97;;;;;;;3.23;82.15;99963.06;5035538;28;20032;-82
2022/03/31 03:36:42;;;;;;;9.55;4.75;;;;;;;3.16;82.23;99963.06;5035969;28;20025;-82
2022/03/31 03:39:08;;;;;;;7.82;4.85;;;;;;;3.03;82.08;99957.91;5034956;28;20037;-82
2022/03/31 03:41:33;;;;;;;7.40;4.50;;;;;;;2.98;81.69;99956.19;5035633;28;20030;-82
2022/03/31 03:43:58;;;;;;;7.07;4.45;;;;;;;2.94;81.70;99957.91;5035772;28;20358;-82
2022/03/31 03:46:23;;;;;;;5.82;3.97;;;;;;;2.86;80.99;99973.28;5034290;28;20073;-83
2022/03/31 03:48:49;;;;;;;6.22;4.00;;;;;;;2.80;83.40;99972.41;5035860;28;20462;-82
2022/03/31 03:51:14;;;;;;;5.38;3.63;;;;;;;2.73;82.26;99964.72;5035510;28;20017;-82
2022/03/31 03:53:40;;;;;;;5.88;3.97;;;;;;;2.60;83.90;99975.75;5034694;28;20029;-83
2022/03/31 03:56:05;;;;;;;6.32;3.85;;;;;;;2.54;83.27;99974.03;5035126;28;20025;-82
2022/03/31 03:58:31;;;;;;;6.78;4.43;;;;;;;2.27;84.01;99975.63;5035035;28;20045;-82
2022/03/31 04:01:00;;;;;;;6.00;3.97;;;;;;;2.27;83.50;99978.19;5034382;28;20032;-83
2022/03/31 04:03:26;;;;;;;6.03;3.60;;;;;;;2.21;83.75;99978.16;5035376;28;20578;-83
2022/03/31 04:05:55;;;;;;;4.93;3.50;;;;;;;2.22;83.55;99974.75;5035363;28;20028;-82
2022/03/31 04:08:21;;;;;;;7.00;4.15;;;;;;;2.10;84.80;99972.13;5034359;28;20025;-82
2022/03/31 04:10:46;;;;;;;5.13;3.88;;;;;;;2.05;84.59;99973.78;5035311;28;20021;-82
2022/03/31 04:13:11;;;;;;;4.63;3.70;;;;;;;2.02;84.69;99971.25;5034957;28;20025;-82
2022/03/31 04:15:37;;;;;;;7.55;4.00;;;;;;;1.99;85.18;99972.06;5034327;28;20109;-82
2022/03/31 04:18:02;;;;;;;4.80;3.80;;;;;;;2.01;85.03;99972.94;5035362;28;20034;-82
2022/03/31 04:20:28;;;;;;;5.80;3.95;;;;;;;1.95;84.86;99970.34;5034018;28;20493;-82
2022/03/31 04:22:53;;;;;;;4.90;3.40;;;;;;;1.97;84.61;99966.94;5034974;28;20038;-82
2022/03/31 04:25:18;;;;;;;4.80;3.42;;;;;;;2.03;85.41;99967.84;5034715;28;20025;-82
2022/03/31 04:27:44;;;;;;;4.50;3.42;;;;;;;2.06;84.49;99978.94;5034075;28;20021;-82
2022/03/31 04:30:11;;;;;;;5.75;3.67;;;;;;;2.06;85.29;99978.94;5034688;28;20021;-83
2022/03/31 04:32:38;;;;;;;4.32;3.40;;;;;;;1.99;84.65;99982.28;5034552;28;20040;-82
2022/03/31 04:35:05;;;;;;;5.03;3.60;;;;;;;1.92;86.16;99978.84;5034221;28;20017;-83
2022/03/31 04:37:30;;;;;;;5.93;3.70;;;;;;;1.85;86.09;99972.84;5034303;28;20029;-82
2022/03/31 04:39:56;;;;;;;4.57;3.33;;;;;;;1.83;85.28;99979.66;5034746;28;20090;-83
2022/03/31 04:42:21;;;;;;;3.42;2.80;;;;;;;1.86;85.31;99978.81;5033558;28;20129;-83
2022/03/31 04:44:47;;;;;;;3.80;3.20;;;;;;;1.83;85.92;99974.53;5034845;28;20078;-83
2022/03/31 04:47:12;;;;;;;4.22;3.22;;;;;;;1.74;86.19;99976.16;5034464;28;20440;-83
2022/03/31 04:49:38;;;;;;;3.63;2.92;;;;;;;1.69;86.79;99984.66;5033722;28;20018;-83
2022/03/31 04:52:04;;;;;;;4.22;2.90;;;;;;;1.65;86.37;99979.50;5034224;28;20104;-83
2022/03/31 04:54:29;;;;;;;4.15;3.45;;;;;;;1.58;86.80;99983.72;5034126;28;20168;-83
2022/03/31 04:56:55;;;;;;;4.32;3.30;;;;;;;1.48;87.57;99977.69;5033639;28;20521;-83
2022/03/31 04:59:20;;;;;;;3.08;2.78;;;;;;;1.54;86.30;99982.00;5034233;28;20101;-83
2022/03/31 05:01:45;;;;;;;3.10;2.80;;;;;;;1.62;86.92;99984.63;5034189;28;20389;-83
2022/03/31 05:04:12;;;;;;;3.85;3.00;;;;;;;1.57;87.50;99987.16;5033664;28;20030;-83
2022/03/31 05:06:37;;;;;;;3.40;3.10;;;;;;;1.52;87.80;99981.97;5033982;28;20100;-83
2022/03/31 05:09:03;;;;;;;4.80;3.30;;;;;;;1.53;87.56;99986.25;5033655;28;20414;-82
2022/03/31 05:11:28;;;;;;;4.80;3.10;;;;;;;1.55;87.37;99988.84;5033555;28;20102;-81
2022/03/31 05:13:54;;;;;;;4.72;3.30;;;;;;;1.60;86.73;99976.91;5033888;28;20052;-81
2022/03/31 05:16:19;;;;;;;4.05;3.10;;;;;;;1.59;86.95;99980.31;5033829;28;20028;-81
2022/03/31 05:18:45;;;;;;;5.40;3.28;;;;;;;1.66;86.54;99981.22;5033229;28;20033;-82
2022/03/31 05:21:13;;;;;;;4.80;3.40;;;;;;;1.64;86.17;99981.22;5034045;28;20092;-82
2022/03/31 05:23:39;;;;;;;4.47;3.30;;;;;;;1.65;87.06;99984.63;5032509;28;20057;-81
2022/03/31 05:26:04;;;;;;;5.85;3.55;;;;;;;1.57;86.56;99984.59;5033670;28;20013;-82
2022/03/31 05:28:30;;;;;;;4.82;3.20;;;;;;;1.59;86.68;99987.16;5033467;28;20025;-82
2022/03/31 05:30:55;;;;;;;4.10;2.78;;;;;;;1.64;86.50;99988.91;5033196;28;20025;-82
2022/03/31 05:33:21;;;;;;;3.78;2.88;;;;;;;1.58;86.39;99988.84;5032949;28;20029;-83
2022/03/31 05:35:46;;;;;;;4.43;2.90;;;;;;;1.49;85.98;99981.97;5033668;28;20064;-83
2022/03/31 05:38:11;;;;;;;3.22;2.70;;;;;;;1.42;86.25;99981.91;5033069;28;20057;-83
2022/03/31 05:40:36;;;;;;;3.65;2.83;;;;;;;1.41;85.95;99982.75;5032929;28;20127;-84
2022/03/31 05:43:02;;;;;;;4.25;2.70;;;;;;;1.26;86.60;99986.88;5033237;28;20064;-83
2022/03/31 05:45:27;;;;;;;3.25;2.65;;;;;;;1.19;86.20;99987.66;5032010;28;20124;-83
2022/03/31 05:47:54;;;;;;;2.90;2.60;;;;;;;1.19;85.91;99985.97;5033072;28;20388;-86
2022/03/31 05:50:32;;;;;;;2.95;2.65;;;;;;;1.13;86.68;99991.03;5033345;28;20481;-86
2022/03/31 05:52:58;;;;;;;3.30;2.70;;;;;;;1.07;86.61;99996.94;5033349;28;20041;-84
2022/03/31 05:55:23;;;;;;;3.65;2.65;;;;;;;0.98;86.81;100006.19;5033519;28;20017;-82
2022/03/31 05:57:49;;;;;;;3.30;2.55;;;;;;;0.86;86.90;100010.34;5033621;28;20077;-82
2022/03/31 06:00:19;;;;;;;2.97;2.60;;;;;;;0.71;87.57;100002.50;5032789;28;20444;-82
2022/03/31 06:02:46;;;;;;;2.75;2.30;;;;;;;0.69;86.56;100001.63;5033321;28;20037;-82
2022/03/31 06:05:12;;;;;;;2.60;2.40;;;;;;;0.67;86.48;99999.06;5033134;28;20021;-81
2022/03/31 06:07:37;;;;;;;2.90;2.40;;;;;;;0.68;87.11;99993.09;5032070;28;20536;-81
2022/03/31 06:10:04;;;;;;;2.40;2.20;;;;;;;0.70;86.46;99988.03;5032646;28;20470;-82
2022/03/31 06:12:29;;;;;;;3.72;2.58;;;;;;;0.66;87.76;99984.59;5032653;28;20025;-81
2022/03/31 06:14:55;;;;;;;3.28;2.60;;;;;;;0.69;87.43;99986.31;5032387;28;20032;-82
2022/03/31 06:17:20;;;;;;;2.83;2.50;;;;;;;0.69;87.83;99982.03;5032835;28;20025;-81
2022/03/31 06:19:45;;;;;;;2.50;2.30;;;;;;;0.71;87.64;99982.94;5032223;28;20396;-82
2022/03/31 06:22:11;;;;;;;4.53;2.50;;;;;;;0.76;88.00;99985.53;5032158;28;20025;-83
2022/03/31 06:24:36;;;;;;;3.70;2.40;;;;;;;0.77;88.46;99990.69;5032301;28;20041;-83
2022/03/31 06:27:02;;;;;;;2.90;2.60;;;;;;;0.81;88.38;99983.91;5032076;28;20042;-83
2022/03/31 06:29:29;;;;;;;2.83;2.42;;;;;;;0.85;87.97;99997.56;5032748;28;20096;-83
2022/03/31 06:31:55;;;;;;;3.05;2.60;;;;;;;0.86;87.41;99997.56;5032286;28;20025;-83
2022/03/31 06:34:20;;;;;;;3.55;2.72;;;;;;;0.86;88.47;100000.13;5030274;28;20038;-83
2022/03/31 06:36:46;;;;;;;4.38;2.78;;;;;;;0.85;87.19;100000.94;5032950;28;20032;-82
2022/03/31 06:39:13;;;;;;;5.63;3.10;;;;;;;0.81;88.72;100003.47;5032779;28;20441;-85
2022/03/31 06:41:38;;;;;;;4.88;3.50;;;;;;;0.77;88.90;100002.56;5032091;28;20049;-86
2022/03/31 06:44:07;;;;;;;3.97;3.03;;;;;;;0.75;89.16;100009.34;5033206;28;20048;-88
2022/03/31 06:46:33;;;;;;;4.15;3.10;;;;;;;0.77;88.78;100007.69;5032387;28;20124;-81
2022/03/31 06:48:58;;;;;;;3.83;3.05;;;;;;;0.76;88.99;100004.28;5032133;28;20453;-84
2022/03/31 06:51:23;;;;;;;3.65;3.00;;;;;;;0.79;88.98;99997.50;5032435;28;20033;-86
2022/03/31 06:53:48;;;;;;;3.55;2.90;;;;;;;0.80;88.62;100002.63;5032342;28;20026;-84
2022/03/31 06:56:18;;;;;;;4.45;3.03;;;;;;;0.84;88.58;99996.72;5032273;28;20359;-84
2022/03/31 06:58:44;;;;;;;3.47;3.03;;;;;;;0.85;88.83;100005.22;5032816;28;20025;-85
2022/03/31 07:01:10;;;;;;;4.03;3.10;;;;;;;0.85;88.42;100000.94;5033089;28;20026;-85
2022/03/31 07:03:36;;;;;;;4.40;3.22;;;;;;;0.90;88.40;100004.44;5031482;28;20657;-85
2022/03/31 07:06:01;;;;;;;4.18;3.10;;;;;;;0.88;89.13;100006.09;5032412;28;20113;-85
2022/03/31 07:08:27;;;;;;;3.92;3.00;;;;;;;0.91;88.79;100007.81;5036678;28;20030;-85
2022/03/31 07:10:55;;;;;;;3.55;3.00;;;;;;;0.92;89.02;100000.19;5032671;28;20101;-85
2022/03/31 07:13:20;;;;;;;4.07;3.08;;;;;;;0.96;88.35;100002.78;5032334;28;20370;-85
2022/03/31 07:15:45;;;;;;;3.67;3.10;;;;;;;0.97;88.31;99990.03;5032710;28;20033;-85
2022/03/31 07:18:11;;;;;;;4.65;3.10;;;;;;;1.04;88.01;99990.94;5031959;28;20485;-86
2022/03/31 07:20:36;;;;;;;5.35;3.20;;;;;;;1.09;87.64;99991.81;5032021;28;20041;-84
2022/03/31 07:23:02;;;;;;;4.95;3.38;;;;;;;1.11;87.95;99987.59;5031946;28;20037;-85
2022/03/31 07:25:28;;;;;;;4.15;3.30;;;;;;;1.06;88.14;99990.09;5031501;28;20029;-85
2022/03/31 07:27:54;;;;;;;3.73;3.13;;;;;;;1.09;87.95;99984.16;5032088;28;20021;-84
2022/03/31 07:30:22;;;;;;;4.97;3.42;;;;;;;1.07;88.74;99986.72;5031484;28;20080;-83
2022/03/31 07:32:52;;;;;;;5.22;3.50;;;;;;;1.10;88.23;99993.53;5035844;28;20083;-85
2022/03/31 07:35:19;;;;;;;4.00;3.30;;;;;;;1.13;88.38;99992.72;5035535;28;20132;-85
2022/03/31 07:37:44;;;;;;;6.15;4.10;;;;;;;1.10;88.81;99995.25;5035566;28;20032;-88
2022/03/31 07:40:10;;;;;;;6.25;3.40;;;;;;;1.07;88.61;99988.41;5035706;28;20105;-86
2022/03/31 07:42:35;;;;;;;5.00;3.53;;;;;;;1.06;89.65;99997.78;5033996;28;20030;-86
2022/03/31 07:45:00;;;;;;;6.15;3.85;;;;;;;1.06;89.06;99999.50;5033895;28;20033;-87
2022/03/31 07:47:26;;;;;;;5.63;3.85;;;;;;;1.04;89.29;99996.91;5035422;28;20041;-87
2022/03/31 07:49:52;;;;;;;5.28;3.90;;;;;;;1.04;89.13;99996.06;5035524;28;20377;-86
2022/03/31 07:52:18;;;;;;;5.53;3.92;;;;;;;1.11;89.75;99995.25;5034894;28;20033;-86
2022/03/31 07:54:44;;;;;;;4.80;3.47;;;;;;;1.14;89.59;99992.75;5035744;28;20037;-87
2022/03/31 07:57:09;;;;;;;5.72;3.92;;;;;;;1.11;89.43;99989.31;5035793;28;20029;-86
2022/03/31 07:59:34;;;;;;;5.68;3.95;;;;;;;1.06;89.97;99989.25;5034374;28;20045;-87
2022/03/31 08:02:00;;;;;;;6.88;4.30;;;;;;;1.02;90.02;99990.06;5035582;28;20029;-86
2022/03/31 08:04:27;;;;;;;4.97;3.80;;;;;;;1.08;89.63;99990.09;5034952;28;20481;-86
2022/03/31 08:06:55;;;;;;;5.07;3.80;;;;;;;1.08;90.30;99993.53;5034731;28;20033;-87
2022/03/31 08:09:23;;;;;;;4.10;3.40;;;;;;;1.15;89.44;99991.03;5035264;28;20022;-86
2022/03/31 08:11:49;;;;;;;4.35;3.38;;;;;;;1.20;89.04;99987.69;5035762;28;20079;-86
2022/03/31 08:14:16;;;;;;;5.70;3.70;;;;;;;1.22;89.75;99987.72;5034431;28;20064;-86
2022/03/31 08:16:46;;;;;;;3.95;3.20;;;;;;;1.28;89.96;99979.25;5035457;28;20026;-86
2022/03/31 08:19:11;;;;;;;4.20;3.10;;;;;;;1.31;89.65;99981.78;5035238;28;20087;-86
2022/03/31 08:21:36;;;;;;;4.90;3.38;;;;;;;1.31;89.76;99985.22;5034325;28;20030;-86
2022/03/31 08:24:02;;;;;;;4.35;3.30;;;;;;;1.37;88.62;99982.72;5035287;28;20022;-86
2022/03/31 08:26:27;;;;;;;4.65;3.55;;;;;;;1.32;90.40;99981.84;5035324;28;20199;-85
2022/03/31 08:28:53;;;;;;;3.88;3.05;;;;;;;1.38;89.69;99984.44;5034673;28;20033;-86
2022/03/31 08:31:18;;;;;;;4.35;3.30;;;;;;;1.47;89.17;99990.44;5034867;28;20116;-86
2022/03/31 08:33:43;;;;;;;4.38;3.20;;;;;;;1.46;89.76;99974.25;5037481;28;20025;-85
2022/03/31 08:36:09;;;;;;;3.40;2.88;;;;;;;1.55;89.52;99983.72;5034909;28;20109;-85
2022/03/31 08:38:34;;;;;;;3.97;2.90;;;;;;;1.64;89.65;99973.56;5034737;28;20026;-86
2022/03/31 08:41:00;;;;;;;3.10;2.67;;;;;;;1.76;88.66;99972.78;5041473;28;20056;-86
2022/03/31 08:43:27;;;;;;;4.95;3.25;;;;;;;1.78;89.01;99976.19;5036499;28;20497;-86
2022/03/31 08:45:55;;;;;;;4.25;3.20;;;;;;;1.82;88.65;99975.38;5034591;28;20032;-85
2022/03/31 08:48:22;;;;;;;4.45;3.40;;;;;;;1.80;87.94;99976.22;5033439;28;20112;-86
2022/03/31 08:50:48;;;;;;;4.40;3.42;;;;;;;1.84;88.92;99983.94;5034987;28;20026;-86
2022/03/31 08:53:13;;;;;;;4.45;3.50;;;;;;;1.86;88.84;99983.94;5034779;28;20083;-87
2022/03/31 08:55:38;;;;;;;4.65;3.60;;;;;;;1.85;88.53;99979.66;5035227;28;20018;-87
2022/03/31 08:58:04;;;;;;;5.00;3.42;;;;;;;1.88;88.25;99986.50;5034655;28;20017;-86
2022/03/31 09:00:29;;;;;;;4.75;3.60;;;;;;;1.81;88.79;99990.72;5033857;28;20037;-86
2022/03/31 09:02:59;;;;;;;5.57;3.92;;;;;;;1.84;87.85;100000.97;5033978;28;20036;-87
2022/03/31 09:05:25;;;;;;;4.88;3.80;;;;;;;1.78;88.41;99993.25;5034225;28;20026;-86
2022/03/31 09:07:59;;;;;;;5.33;3.73;;;;;;;1.82;88.34;99990.75;5034345;28;20036;-85
2022/03/31 09:10:33;;;;;;;5.65;4.03;;;;;;;1.85;88.35;99990.75;5033704;28;20280;-88
2022/03/31 09:13:00;;;;;;;5.72;4.10;;;;;;;1.85;88.68;99997.56;5035610;28;20393;-85
2022/03/31 09:15:25;;;;;;;;;;;;;;;1.94;88.31;100001.91;5029973;28;20025;-86
2022/03/31 09:17:56;;;;;;;6.97;4.00;;;;;;;1.96;88.50;99995.09;5073790;22;19920;-86
2022/03/31 09:20:21;;;;;;;5.65;3.85;;;;;;;1.97;89.44;99991.69;5047252;28;20052;-86
2022/03/31 09:22:49;;;;;;;6.22;4.30;;;;;;;1.97;88.84;99995.09;5040099;22;20498;-84
2022/03/31 09:25:28;;;;;;;5.82;4.10;;;;;;;1.96;89.49;100001.06;5014363;28;20466;-86
2022/03/31 09:27:55;;;;;;;6.45;4.15;;;;;;;1.96;88.96;99995.09;5013988;28;20064;-86
2022/03/31 09:30:22;;;;;;;5.38;4.00;;;;;;;2.02;89.65;99997.69;5012851;28;20041;-85
2022/03/31 09:32:50;;;;;;;6.13;3.90;;;;;;;2.04;89.08;100000.22;5013428;28;20014;-86
2022/03/31 09:35:20;;;;;;;6.40;3.97;;;;;;;2.11;88.83;100002.00;5009432;28;20053;-85
2022/03/31 09:37:48;;;;;;;6.07;4.10;;;;;;;2.09;89.04;100001.13;4998763;28;20037;-86
2022/03/31 09:40:13;;;;;;;8.75;4.30;;;;;;;2.07;88.20;100002.81;4993907;28;20030;-86
2022/03/31 09:42:38;;;;;;;6.25;4.00;;;;;;;2.11;88.83;100002.00;4992542;28;20042;-85
2022/03/31 09:45:04;;;;;;;5.45;3.90;;;;;;;2.20;89.03;100002.06;4992724;28;20045;-86
2022/03/31 09:47:29;;;;;;;6.75;4.30;;;;;;;2.19;87.98;100000.34;4993188;28;20030;-86
2022/03/31 09:49:56;;;;;;;5.18;3.95;;;;;;;2.18;88.27;100000.34;4993569;28;20096;-86
2022/03/31 09:52:22;;;;;;;6.10;3.95;;;;;;;2.21;88.55;99996.09;4993363;28;20026;-86
2022/03/31 09:54:49;;;;;;;5.50;3.80;;;;;;;2.30;88.62;99996.13;5000922;28;20113;-86
2022/03/31 09:57:21;;;;;;;5.97;3.60;;;;;;;2.37;88.07;99994.47;5013690;28;20034;-86
2022/03/31 09:59:59;;;;;;;6.85;3.80;;;;;;;2.43;89.05;99985.94;5013016;28;20385;-85
2022/03/31 10:02:37;;;;;;;6.10;3.78;;;;;;;2.31;88.36;99981.59;5013489;28;20025;-86
2022/03/31 10:05:06;;;;;;;4.93;3.70;;;;;;;2.33;87.94;99986.75;5013188;28;20393;-88
2022/03/31 10:07:44;;;;;;;5.90;4.05;;;;;;;2.34;87.53;99991.03;5013838;28;20117;-89
2022/03/31 10:10:13;;;;;;;6.70;3.92;;;;;;;2.29;88.47;99991.84;5013290;28;20389;-86
2022/03/31 10:13:00;;;;;;;6.07;4.32;;;;;;;2.19;87.79;99981.56;5012062;28;20034;-87
2022/03/31 10:15:36;;;;;;;6.78;4.13;;;;;;;2.19;88.16;99986.69;5013305;28;20026;-85
2022/03/31 10:18:08;;;;;;;6.93;3.90;;;;;;;2.23;88.17;99989.28;5013526;28;20022;-86
2022/03/31 10:20:33;;;;;;;6.47;3.85;;;;;;;2.24;88.15;99985.88;5011657;28;20041;-86
2022/03/31 10:25:46;;;;;;;;;;;;;;;2.36;88.44;99995.31;5014012;28;20449;-86
2022/03/31 10:28:17;;;;;;;6.30;4.17;;;;;;;2.40;88.56;99994.47;5012581;28;19914;-86
2022/03/31 10:31:00;;;;;;;6.15;3.83;;;;;;;2.49;88.36;100001.31;5013413;28;20075;-86
2022/03/31 10:33:31;;;;;;;5.88;3.63;;;;;;;2.59;88.30;99995.38;5011800;28;20050;-86
2022/03/31 10:36:12;;;;;;;4.85;3.67;;;;;;;2.67;87.11;99992.84;5012397;28;20033;-86
2022/03/31 10:38:52;;;;;;;6.68;4.05;;;;;;;2.63;86.68;99992.00;5012946;28;20026;-87
2022/03/31 10:41:18;;;;;;;5.82;3.80;;;;;;;2.68;86.88;99986.88;5012153;28;20037;-86
2022/03/31 10:43:52;;;;;;;4.90;3.53;;;;;;;2.74;86.74;99986.03;5013368;28;20026;-85
2022/03/31 10:46:21;;;;;;;7.22;4.40;;;;;;;2.68;86.61;99980.91;5012870;28;20018;-87
2022/03/31 10:48:50;;;;;;;6.07;4.15;;;;;;;2.55;86.86;99974.88;5011713;28;20025;-85
2022/03/31 10:51:16;;;;;;;6.38;4.20;;;;;;;2.59;87.83;99982.56;4992619;28;20113;-85
2022/03/31 10:53:50;;;;;;;7.25;4.68;;;;;;;2.62;87.51;99987.72;4993636;28;20129;-85
2022/03/31 10:56:25;;;;;;;6.78;4.35;;;;;;;2.69;87.34;99982.63;4992546;28;20034;-85
2022/03/31 10:59:02;;;;;;;5.25;3.70;;;;;;;2.81;87.32;99976.66;5004038;28;20033;-85
2022/03/31 11:01:31;;;;;;;5.85;4.00;;;;;;;2.88;86.96;99980.94;5011940;28;20128;-84
2022/03/31 11:04:06;;;;;;;5.22;3.70;;;;;;;2.97;86.98;99977.56;5012824;28;20517;-85
2022/03/31 11:06:33;;;;;;;5.13;3.60;;;;;;;3.02;86.44;99973.31;5014323;28;20034;-85
2022/03/31 11:08:58;;;;;;;5.30;3.60;;;;;;;3.10;86.36;99971.59;5016017;28;20018;-85
2022/03/31 11:11:28;;;;;;;5.07;3.40;;;;;;;3.13;86.38;99963.94;5016544;28;20277;-85
2022/03/31 11:14:08;;;;;;;5.03;3.53;;;;;;;3.17;86.50;99973.31;5016614;28;20397;-85
2022/03/31 11:16:37;;;;;;;5.38;3.67;;;;;;;3.20;86.60;99977.63;5016129;28;20551;-85
2022/03/31 11:19:04;;;;;;;5.90;3.97;;;;;;;3.14;85.27;99970.75;5015859;28;20041;-86
2022/03/31 11:21:37;;;;;;;6.20;4.45;;;;;;;3.02;86.59;99969.03;5016481;28;20030;-86
2022/03/31 11:24:04;;;;;;;6.88;4.22;;;;;;;3.00;86.66;99959.63;5015714;28;20089;-86
2022/03/31 11:26:31;;;;;;;6.00;4.18;;;;;;;3.13;86.81;99961.38;5016293;28;20033;-86
2022/03/31 11:28:59;;;;;;;5.55;4.07;;;;;;;3.24;86.87;99956.22;5016392;28;20037;-86
2022/03/31 11:31:25;;;;;;;5.25;3.88;;;;;;;3.33;86.05;99963.06;5015674;28;20026;-86
2022/03/31 11:33:50;;;;;;;6.25;4.25;;;;;;;3.36;85.65;99957.94;5016084;28;20072;-86
2022/03/31 11:36:20;;;;;;;4.85;3.60;;;;;;;3.43;86.21;99959.66;5016281;28;20044;-86
2022/03/31 11:38:58;;;;;;;5.57;4.15;;;;;;;3.45;85.09;99950.25;5015615;28;20367;-86
2022/03/31 11:41:24;;;;;;;6.35;4.07;;;;;;;3.36;85.52;99945.13;5016154;28;20156;-86
2022/03/31 11:43:54;;;;;;;5.90;4.30;;;;;;;3.32;86.78;99946.81;5015747;28;20475;-88